sensor_id;sensor_type;location;lat;lon;timestamp;P1;durP1;ratioP1;P2;durP2;ratioP2
36359;SDS011;22388;52.432;20.662;2022-11-25T00:03:31;161.95;;;45.08;;
36359;SDS011;22388;52.432;20.662;2022-11-25T00:05:56;156.18;;;45.67;;
36359;SDS011;22388;52.432;20.662;2022-11-25T00:08:48;148.68;;;42.60;;
36359;SDS011;22388;52.432;20.662;2022-11-25T00:11:15;167.52;;;47.17;;
36359;SDS011;22388;52.432;20.662;2022-11-25T00:13:42;151.77;;;45.10;;
36359;SDS011;22388;52.432;20.662;2022-11-25T00:16:09;175.20;;;45.72;;
36359;SDS011;22388;52.432;20.662;2022-11-25T00:18:36;158.23;;;45.72;;
36359;SDS011;22388;52.432;20.662;2022-11-25T00:21:09;160.63;;;45.50;;
36359;SDS011;22388;52.432;20.662;2022-11-25T00:23:35;161.05;;;47.00;;
36359;SDS011;22388;52.432;20.662;2022-11-25T00:26:11;156.27;;;45.80;;
36359;SDS011;22388;52.432;20.662;2022-11-25T00:28:39;160.80;;;44.28;;
36359;SDS011;22388;52.432;20.662;2022-11-25T00:31:06;156.10;;;45.63;;
36359;SDS011;22388;52.432;20.662;2022-11-25T00:33:32;146.05;;;44.38;;
36359;SDS011;22388;52.432;20.662;2022-11-25T00:36:04;154.90;;;47.28;;
36359;SDS011;22388;52.432;20.662;2022-11-25T00:38:31;170.45;;;46.35;;
36359;SDS011;22388;52.432;20.662;2022-11-25T00:40:57;164.32;;;46.33;;
36359;SDS011;22388;52.432;20.662;2022-11-25T00:43:41;156.88;;;47.47;;
36359;SDS011;22388;52.432;20.662;2022-11-25T00:46:26;157.23;;;43.90;;
36359;SDS011;22388;52.432;20.662;2022-11-25T00:48:52;166.60;;;47.17;;
36359;SDS011;22388;52.432;20.662;2022-11-25T00:51:17;166.32;;;46.25;;
36359;SDS011;22388;52.432;20.662;2022-11-25T00:53:43;164.63;;;45.65;;
36359;SDS011;22388;52.432;20.662;2022-11-25T00:56:08;178.73;;;48.28;;
36359;SDS011;22388;52.432;20.662;2022-11-25T00:58:41;166.05;;;47.58;;
36359;SDS011;22388;52.432;20.662;2022-11-25T01:01:07;170.70;;;48.25;;
36359;SDS011;22388;52.432;20.662;2022-11-25T01:03:33;162.80;;;47.90;;
36359;SDS011;22388;52.432;20.662;2022-11-25T01:06:05;167.02;;;45.55;;
36359;SDS011;22388;52.432;20.662;2022-11-25T01:08:32;174.02;;;48.00;;
36359;SDS011;22388;52.432;20.662;2022-11-25T01:10:59;176.15;;;49.20;;
36359;SDS011;22388;52.432;20.662;2022-11-25T01:13:25;171.32;;;48.30;;
36359;SDS011;22388;52.432;20.662;2022-11-25T01:15:52;165.32;;;47.97;;
36359;SDS011;22388;52.432;20.662;2022-11-25T01:18:17;172.43;;;48.35;;
36359;SDS011;22388;52.432;20.662;2022-11-25T01:20:43;166.85;;;51.65;;
36359;SDS011;22388;52.432;20.662;2022-11-25T01:23:08;166.15;;;47.72;;
36359;SDS011;22388;52.432;20.662;2022-11-25T01:25:37;157.45;;;47.67;;
36359;SDS011;22388;52.432;20.662;2022-11-25T01:28:03;172.82;;;49.58;;
36359;SDS011;22388;52.432;20.662;2022-11-25T01:30:29;159.95;;;47.55;;
36359;SDS011;22388;52.432;20.662;2022-11-25T01:32:55;172.07;;;49.33;;
36359;SDS011;22388;52.432;20.662;2022-11-25T01:35:20;174.82;;;49.15;;
36359;SDS011;22388;52.432;20.662;2022-11-25T01:37:46;174.88;;;50.83;;
36359;SDS011;22388;52.432;20.662;2022-11-25T01:40:11;183.05;;;51.78;;
36359;SDS011;22388;52.432;20.662;2022-11-25T01:42:47;171.32;;;47.58;;
36359;SDS011;22388;52.432;20.662;2022-11-25T01:48:04;156.40;;;43.88;;
36359;SDS011;22388;52.432;20.662;2022-11-25T01:50:39;148.50;;;44.47;;
36359;SDS011;22388;52.432;20.662;2022-11-25T01:53:06;162.68;;;45.25;;
36359;SDS011;22388;52.432;20.662;2022-11-25T01:55:35;141.02;;;41.53;;
36359;SDS011;22388;52.432;20.662;2022-11-25T01:58:07;143.32;;;43.55;;
36359;SDS011;22388;52.432;20.662;2022-11-25T02:00:35;144.98;;;41.63;;
36359;SDS011;22388;52.432;20.662;2022-11-25T02:03:02;139.63;;;42.30;;
36359;SDS011;22388;52.432;20.662;2022-11-25T02:05:38;143.05;;;42.70;;
36359;SDS011;22388;52.432;20.662;2022-11-25T02:08:23;136.30;;;43.05;;
36359;SDS011;22388;52.432;20.662;2022-11-25T02:10:51;155.55;;;45.35;;
36359;SDS011;22388;52.432;20.662;2022-11-25T02:13:18;159.52;;;45.78;;
36359;SDS011;22388;52.432;20.662;2022-11-25T02:15:45;153.52;;;45.13;;
36359;SDS011;22388;52.432;20.662;2022-11-25T02:18:10;146.48;;;45.15;;
36359;SDS011;22388;52.432;20.662;2022-11-25T02:20:36;148.75;;;42.38;;
36359;SDS011;22388;52.432;20.662;2022-11-25T02:25:29;154.80;;;45.70;;
36359;SDS011;22388;52.432;20.662;2022-11-25T02:30:45;149.88;;;43.95;;
36359;SDS011;22388;52.432;20.662;2022-11-25T02:33:10;144.23;;;44.63;;
36359;SDS011;22388;52.432;20.662;2022-11-25T02:35:38;147.43;;;44.20;;
36359;SDS011;22388;52.432;20.662;2022-11-25T02:38:12;156.50;;;45.13;;
36359;SDS011;22388;52.432;20.662;2022-11-25T02:40:42;167.13;;;46.88;;
36359;SDS011;22388;52.432;20.662;2022-11-25T02:43:12;166.18;;;47.30;;
36359;SDS011;22388;52.432;20.662;2022-11-25T02:45:41;163.50;;;45.97;;
36359;SDS011;22388;52.432;20.662;2022-11-25T02:48:14;159.68;;;45.33;;
36359;SDS011;22388;52.432;20.662;2022-11-25T02:50:40;153.90;;;45.90;;
36359;SDS011;22388;52.432;20.662;2022-11-25T02:53:05;173.38;;;49.60;;
36359;SDS011;22388;52.432;20.662;2022-11-25T02:55:32;161.52;;;46.45;;
36359;SDS011;22388;52.432;20.662;2022-11-25T02:57:58;171.05;;;47.17;;
36359;SDS011;22388;52.432;20.662;2022-11-25T03:00:24;176.75;;;49.15;;
36359;SDS011;22388;52.432;20.662;2022-11-25T03:02:51;162.25;;;47.47;;
36359;SDS011;22388;52.432;20.662;2022-11-25T03:05:17;190.57;;;50.53;;
36359;SDS011;22388;52.432;20.662;2022-11-25T03:07:43;169.93;;;48.28;;
36359;SDS011;22388;52.432;20.662;2022-11-25T03:10:09;190.35;;;48.92;;
36359;SDS011;22388;52.432;20.662;2022-11-25T03:12:34;172.55;;;47.65;;
36359;SDS011;22388;52.432;20.662;2022-11-25T03:15:00;181.73;;;49.22;;
36359;SDS011;22388;52.432;20.662;2022-11-25T03:17:25;206.20;;;51.45;;
36359;SDS011;22388;52.432;20.662;2022-11-25T03:19:51;200.90;;;50.47;;
36359;SDS011;22388;52.432;20.662;2022-11-25T03:22:16;204.13;;;50.80;;
36359;SDS011;22388;52.432;20.662;2022-11-25T03:24:42;197.68;;;49.33;;
36359;SDS011;22388;52.432;20.662;2022-11-25T03:27:07;199.50;;;49.42;;
36359;SDS011;22388;52.432;20.662;2022-11-25T03:29:33;177.20;;;47.80;;
36359;SDS011;22388;52.432;20.662;2022-11-25T03:31:59;181.85;;;50.42;;
36359;SDS011;22388;52.432;20.662;2022-11-25T03:34:24;171.50;;;48.20;;
36359;SDS011;22388;52.432;20.662;2022-11-25T03:36:50;175.27;;;47.30;;
36359;SDS011;22388;52.432;20.662;2022-11-25T03:39:15;174.85;;;48.15;;
36359;SDS011;22388;52.432;20.662;2022-11-25T03:41:41;192.55;;;49.85;;
36359;SDS011;22388;52.432;20.662;2022-11-25T03:44:07;174.50;;;48.20;;
36359;SDS011;22388;52.432;20.662;2022-11-25T03:46:32;193.10;;;51.60;;
36359;SDS011;22388;52.432;20.662;2022-11-25T03:48:58;183.85;;;50.28;;
36359;SDS011;22388;52.432;20.662;2022-11-25T03:51:23;203.85;;;51.58;;
36359;SDS011;22388;52.432;20.662;2022-11-25T03:53:49;201.10;;;51.30;;
36359;SDS011;22388;52.432;20.662;2022-11-25T03:56:15;197.35;;;52.83;;
36359;SDS011;22388;52.432;20.662;2022-11-25T03:58:41;222.93;;;55.45;;
36359;SDS011;22388;52.432;20.662;2022-11-25T04:01:06;218.38;;;52.30;;
36359;SDS011;22388;52.432;20.662;2022-11-25T04:03:32;233.60;;;56.90;;
36359;SDS011;22388;52.432;20.662;2022-11-25T04:05:57;222.68;;;54.60;;
36359;SDS011;22388;52.432;20.662;2022-11-25T04:08:23;220.63;;;54.28;;
36359;SDS011;22388;52.432;20.662;2022-11-25T04:10:49;232.60;;;53.17;;
36359;SDS011;22388;52.432;20.662;2022-11-25T04:13:15;220.70;;;54.97;;
36359;SDS011;22388;52.432;20.662;2022-11-25T04:15:44;218.02;;;55.00;;
36359;SDS011;22388;52.432;20.662;2022-11-25T04:18:11;228.45;;;56.88;;
36359;SDS011;22388;52.432;20.662;2022-11-25T04:20:37;216.55;;;54.67;;
36359;SDS011;22388;52.432;20.662;2022-11-25T04:23:03;224.05;;;52.40;;
36359;SDS011;22388;52.432;20.662;2022-11-25T04:25:30;226.70;;;56.75;;
36359;SDS011;22388;52.432;20.662;2022-11-25T04:27:56;227.45;;;56.17;;
36359;SDS011;22388;52.432;20.662;2022-11-25T04:30:22;207.27;;;54.25;;
36359;SDS011;22388;52.432;20.662;2022-11-25T04:32:47;212.88;;;56.10;;
36359;SDS011;22388;52.432;20.662;2022-11-25T04:35:13;209.23;;;52.25;;
36359;SDS011;22388;52.432;20.662;2022-11-25T04:37:38;224.30;;;54.42;;
36359;SDS011;22388;52.432;20.662;2022-11-25T04:40:04;205.52;;;52.85;;
36359;SDS011;22388;52.432;20.662;2022-11-25T04:42:30;182.15;;;49.67;;
36359;SDS011;22388;52.432;20.662;2022-11-25T04:44:56;155.45;;;46.55;;
36359;SDS011;22388;52.432;20.662;2022-11-25T04:47:26;148.90;;;45.85;;
36359;SDS011;22388;52.432;20.662;2022-11-25T04:49:53;145.90;;;47.28;;
36359;SDS011;22388;52.432;20.662;2022-11-25T04:52:18;139.60;;;48.00;;
36359;SDS011;22388;52.432;20.662;2022-11-25T04:54:44;148.55;;;49.58;;
36359;SDS011;22388;52.432;20.662;2022-11-25T04:57:11;135.90;;;48.28;;
36359;SDS011;22388;52.432;20.662;2022-11-25T04:59:38;139.35;;;48.45;;
36359;SDS011;22388;52.432;20.662;2022-11-25T05:04:43;136.27;;;49.65;;
36359;SDS011;22388;52.432;20.662;2022-11-25T05:07:10;128.85;;;48.58;;
36359;SDS011;22388;52.432;20.662;2022-11-25T05:09:36;125.80;;;47.67;;
36359;SDS011;22388;52.432;20.662;2022-11-25T05:12:02;131.35;;;50.28;;
36359;SDS011;22388;52.432;20.662;2022-11-25T05:14:28;137.23;;;50.15;;
36359;SDS011;22388;52.432;20.662;2022-11-25T05:19:23;129.55;;;49.38;;
36359;SDS011;22388;52.432;20.662;2022-11-25T05:21:49;128.18;;;48.03;;
36359;SDS011;22388;52.432;20.662;2022-11-25T05:24:14;131.05;;;45.72;;
36359;SDS011;22388;52.432;20.662;2022-11-25T05:26:40;132.40;;;47.78;;
36359;SDS011;22388;52.432;20.662;2022-11-25T05:29:05;127.05;;;46.05;;
36359;SDS011;22388;52.432;20.662;2022-11-25T05:31:31;133.52;;;47.97;;
36359;SDS011;22388;52.432;20.662;2022-11-25T05:33:58;134.48;;;47.60;;
36359;SDS011;22388;52.432;20.662;2022-11-25T05:36:26;135.85;;;51.35;;
36359;SDS011;22388;52.432;20.662;2022-11-25T05:38:52;139.25;;;48.03;;
36359;SDS011;22388;52.432;20.662;2022-11-25T05:41:20;131.93;;;48.78;;
36359;SDS011;22388;52.432;20.662;2022-11-25T05:43:46;137.52;;;50.45;;
36359;SDS011;22388;52.432;20.662;2022-11-25T05:46:12;141.43;;;51.58;;
36359;SDS011;22388;52.432;20.662;2022-11-25T05:48:37;147.27;;;52.20;;
36359;SDS011;22388;52.432;20.662;2022-11-25T05:51:03;138.88;;;52.20;;
36359;SDS011;22388;52.432;20.662;2022-11-25T05:53:29;134.52;;;51.35;;
36359;SDS011;22388;52.432;20.662;2022-11-25T05:55:57;140.40;;;53.70;;
36359;SDS011;22388;52.432;20.662;2022-11-25T05:58:23;136.95;;;53.45;;
36359;SDS011;22388;52.432;20.662;2022-11-25T06:00:49;126.03;;;49.92;;
36359;SDS011;22388;52.432;20.662;2022-11-25T06:03:15;125.03;;;48.92;;
36359;SDS011;22388;52.432;20.662;2022-11-25T06:05:41;136.63;;;50.55;;
36359;SDS011;22388;52.432;20.662;2022-11-25T06:08:07;135.40;;;50.63;;
36359;SDS011;22388;52.432;20.662;2022-11-25T06:10:32;136.10;;;50.70;;
36359;SDS011;22388;52.432;20.662;2022-11-25T06:12:58;135.77;;;50.78;;
36359;SDS011;22388;52.432;20.662;2022-11-25T06:15:24;133.77;;;51.45;;
36359;SDS011;22388;52.432;20.662;2022-11-25T06:17:50;120.95;;;48.58;;
36359;SDS011;22388;52.432;20.662;2022-11-25T06:20:15;129.13;;;48.97;;
36359;SDS011;22388;52.432;20.662;2022-11-25T06:22:41;123.82;;;48.90;;
36359;SDS011;22388;52.432;20.662;2022-11-25T06:25:07;116.90;;;47.00;;
36359;SDS011;22388;52.432;20.662;2022-11-25T06:27:33;125.70;;;52.15;;
36359;SDS011;22388;52.432;20.662;2022-11-25T06:29:58;119.43;;;45.85;;
36359;SDS011;22388;52.432;20.662;2022-11-25T06:32:24;122.10;;;43.78;;
36359;SDS011;22388;52.432;20.662;2022-11-25T06:34:50;118.65;;;45.25;;
36359;SDS011;22388;52.432;20.662;2022-11-25T06:37:15;123.88;;;45.35;;
36359;SDS011;22388;52.432;20.662;2022-11-25T06:39:41;116.40;;;41.92;;
36359;SDS011;22388;52.432;20.662;2022-11-25T06:42:07;119.30;;;45.70;;
36359;SDS011;22388;52.432;20.662;2022-11-25T06:44:32;121.63;;;45.47;;
36359;SDS011;22388;52.432;20.662;2022-11-25T06:46:58;121.07;;;45.88;;
36359;SDS011;22388;52.432;20.662;2022-11-25T06:49:23;114.10;;;44.53;;
36359;SDS011;22388;52.432;20.662;2022-11-25T06:51:49;121.35;;;46.90;;
36359;SDS011;22388;52.432;20.662;2022-11-25T06:54:18;111.57;;;44.75;;
36359;SDS011;22388;52.432;20.662;2022-11-25T06:56:43;119.63;;;45.10;;
36359;SDS011;22388;52.432;20.662;2022-11-25T06:59:09;126.82;;;48.83;;
36359;SDS011;22388;52.432;20.662;2022-11-25T07:01:34;122.00;;;46.75;;
36359;SDS011;22388;52.432;20.662;2022-11-25T07:04:02;115.82;;;46.78;;
36359;SDS011;22388;52.432;20.662;2022-11-25T07:06:29;119.22;;;46.80;;
36359;SDS011;22388;52.432;20.662;2022-11-25T07:08:56;128.48;;;48.08;;
36359;SDS011;22388;52.432;20.662;2022-11-25T07:11:23;128.82;;;49.00;;
36359;SDS011;22388;52.432;20.662;2022-11-25T07:13:54;140.63;;;51.80;;
36359;SDS011;22388;52.432;20.662;2022-11-25T07:16:21;135.90;;;51.85;;
36359;SDS011;22388;52.432;20.662;2022-11-25T07:18:47;133.63;;;51.85;;
36359;SDS011;22388;52.432;20.662;2022-11-25T07:21:13;130.48;;;54.15;;
36359;SDS011;22388;52.432;20.662;2022-11-25T07:23:41;129.15;;;52.63;;
36359;SDS011;22388;52.432;20.662;2022-11-25T07:26:08;130.82;;;53.40;;
36359;SDS011;22388;52.432;20.662;2022-11-25T07:28:36;131.10;;;52.25;;
36359;SDS011;22388;52.432;20.662;2022-11-25T07:31:09;121.40;;;48.90;;
36359;SDS011;22388;52.432;20.662;2022-11-25T07:33:37;128.63;;;50.45;;
36359;SDS011;22388;52.432;20.662;2022-11-25T07:36:04;137.43;;;50.88;;
36359;SDS011;22388;52.432;20.662;2022-11-25T07:38:31;133.88;;;51.25;;
36359;SDS011;22388;52.432;20.662;2022-11-25T07:41:07;123.88;;;51.30;;
36359;SDS011;22388;52.432;20.662;2022-11-25T07:43:37;192.80;;;78.68;;
36359;SDS011;22388;52.432;20.662;2022-11-25T07:46:22;143.02;;;60.22;;
36359;SDS011;22388;52.432;20.662;2022-11-25T07:48:50;131.23;;;54.10;;
36359;SDS011;22388;52.432;20.662;2022-11-25T07:51:18;129.77;;;49.22;;
36359;SDS011;22388;52.432;20.662;2022-11-25T07:53:49;123.55;;;47.83;;
36359;SDS011;22388;52.432;20.662;2022-11-25T07:56:15;138.00;;;47.22;;
36359;SDS011;22388;52.432;20.662;2022-11-25T07:58:41;128.38;;;48.05;;
36359;SDS011;22388;52.432;20.662;2022-11-25T08:01:09;134.80;;;47.13;;
36359;SDS011;22388;52.432;20.662;2022-11-25T08:03:36;128.32;;;49.67;;
36359;SDS011;22388;52.432;20.662;2022-11-25T08:06:03;133.27;;;47.28;;
36359;SDS011;22388;52.432;20.662;2022-11-25T08:08:30;134.02;;;45.72;;
36359;SDS011;22388;52.432;20.662;2022-11-25T08:10:56;123.78;;;45.53;;
36359;SDS011;22388;52.432;20.662;2022-11-25T08:13:21;123.38;;;44.65;;
36359;SDS011;22388;52.432;20.662;2022-11-25T08:15:47;131.15;;;45.97;;
36359;SDS011;22388;52.432;20.662;2022-11-25T08:18:14;135.63;;;46.30;;
36359;SDS011;22388;52.432;20.662;2022-11-25T08:20:40;123.85;;;44.03;;
36359;SDS011;22388;52.432;20.662;2022-11-25T08:23:06;130.13;;;43.13;;
36359;SDS011;22388;52.432;20.662;2022-11-25T08:25:32;134.85;;;42.85;;
36359;SDS011;22388;52.432;20.662;2022-11-25T08:27:58;136.80;;;44.22;;
36359;SDS011;22388;52.432;20.662;2022-11-25T08:30:23;127.47;;;43.25;;
36359;SDS011;22388;52.432;20.662;2022-11-25T08:32:50;123.80;;;41.83;;
36359;SDS011;22388;52.432;20.662;2022-11-25T08:35:16;134.93;;;43.75;;
36359;SDS011;22388;52.432;20.662;2022-11-25T08:37:42;143.65;;;45.55;;
36359;SDS011;22388;52.432;20.662;2022-11-25T08:40:08;146.40;;;44.88;;
36359;SDS011;22388;52.432;20.662;2022-11-25T08:42:34;146.48;;;44.97;;
36359;SDS011;22388;52.432;20.662;2022-11-25T08:45:00;143.07;;;46.70;;
36359;SDS011;22388;52.432;20.662;2022-11-25T08:47:26;147.32;;;45.88;;
36359;SDS011;22388;52.432;20.662;2022-11-25T08:49:52;156.93;;;50.42;;
36359;SDS011;22388;52.432;20.662;2022-11-25T08:52:19;150.40;;;45.05;;
36359;SDS011;22388;52.432;20.662;2022-11-25T08:54:45;145.32;;;46.15;;
36359;SDS011;22388;52.432;20.662;2022-11-25T08:57:11;154.95;;;47.03;;
36359;SDS011;22388;52.432;20.662;2022-11-25T08:59:36;149.23;;;47.30;;
36359;SDS011;22388;52.432;20.662;2022-11-25T09:02:04;141.05;;;45.38;;
36359;SDS011;22388;52.432;20.662;2022-11-25T09:04:30;150.88;;;49.33;;
36359;SDS011;22388;52.432;20.662;2022-11-25T09:06:55;130.50;;;44.78;;
36359;SDS011;22388;52.432;20.662;2022-11-25T09:09:21;129.45;;;44.10;;
36359;SDS011;22388;52.432;20.662;2022-11-25T09:11:47;124.55;;;43.88;;
36359;SDS011;22388;52.432;20.662;2022-11-25T09:14:12;142.32;;;50.88;;
36359;SDS011;22388;52.432;20.662;2022-11-25T09:16:38;133.25;;;41.55;;
36359;SDS011;22388;52.432;20.662;2022-11-25T09:19:04;129.18;;;46.45;;
36359;SDS011;22388;52.432;20.662;2022-11-25T09:21:30;127.88;;;42.17;;
36359;SDS011;22388;52.432;20.662;2022-11-25T09:23:56;127.57;;;39.95;;
36359;SDS011;22388;52.432;20.662;2022-11-25T09:26:31;128.48;;;39.83;;
36359;SDS011;22388;52.432;20.662;2022-11-25T09:29:00;121.28;;;40.50;;
36359;SDS011;22388;52.432;20.662;2022-11-25T09:31:27;121.13;;;38.90;;
36359;SDS011;22388;52.432;20.662;2022-11-25T09:33:52;134.25;;;42.03;;
36359;SDS011;22388;52.432;20.662;2022-11-25T09:36:18;131.18;;;39.92;;
36359;SDS011;22388;52.432;20.662;2022-11-25T09:38:45;134.82;;;41.72;;
36359;SDS011;22388;52.432;20.662;2022-11-25T09:41:30;135.27;;;40.72;;
36359;SDS011;22388;52.432;20.662;2022-11-25T09:47:36;137.45;;;39.15;;
36359;SDS011;22388;52.432;20.662;2022-11-25T09:52:59;137.32;;;40.92;;
36359;SDS011;22388;52.432;20.662;2022-11-25T09:55:28;137.98;;;40.97;;
36359;SDS011;22388;52.432;20.662;2022-11-25T10:00:31;124.35;;;41.22;;
36359;SDS011;22388;52.432;20.662;2022-11-25T10:08:25;120.68;;;39.42;;
36359;SDS011;22388;52.432;20.662;2022-11-25T10:16:32;114.47;;;38.28;;
36359;SDS011;22388;52.432;20.662;2022-11-25T10:19:29;113.97;;;38.17;;
36359;SDS011;22388;52.432;20.662;2022-11-25T10:22:13;119.13;;;39.58;;
36359;SDS011;22388;52.432;20.662;2022-11-25T10:24:44;113.55;;;39.65;;
36359;SDS011;22388;52.432;20.662;2022-11-25T10:27:14;122.38;;;41.63;;
36359;SDS011;22388;52.432;20.662;2022-11-25T10:29:44;110.60;;;39.38;;
36359;SDS011;22388;52.432;20.662;2022-11-25T10:32:23;103.07;;;38.20;;
36359;SDS011;22388;52.432;20.662;2022-11-25T10:34:52;115.75;;;39.80;;
36359;SDS011;22388;52.432;20.662;2022-11-25T10:37:26;110.22;;;39.35;;
36359;SDS011;22388;52.432;20.662;2022-11-25T10:39:54;118.53;;;42.28;;
36359;SDS011;22388;52.432;20.662;2022-11-25T10:42:21;118.28;;;40.60;;
36359;SDS011;22388;52.432;20.662;2022-11-25T10:44:48;120.13;;;40.83;;
36359;SDS011;22388;52.432;20.662;2022-11-25T10:47:33;116.65;;;43.50;;
36359;SDS011;22388;52.432;20.662;2022-11-25T10:52:50;111.25;;;41.92;;
36359;SDS011;22388;52.432;20.662;2022-11-25T10:55:21;115.63;;;41.05;;
36359;SDS011;22388;52.432;20.662;2022-11-25T10:57:52;113.03;;;41.25;;
36359;SDS011;22388;52.432;20.662;2022-11-25T11:02:59;112.00;;;40.33;;
36359;SDS011;22388;52.432;20.662;2022-11-25T11:05:37;106.97;;;39.95;;
36359;SDS011;22388;52.432;20.662;2022-11-25T11:08:14;104.50;;;38.28;;
36359;SDS011;22388;52.432;20.662;2022-11-25T11:10:42;113.25;;;39.70;;
36359;SDS011;22388;52.432;20.662;2022-11-25T11:13:24;103.68;;;40.78;;
36359;SDS011;22388;52.432;20.662;2022-11-25T11:15:57;113.00;;;40.55;;
36359;SDS011;22388;52.432;20.662;2022-11-25T11:18:24;109.10;;;41.22;;
36359;SDS011;22388;52.432;20.662;2022-11-25T11:21:00;119.75;;;45.67;;
36359;SDS011;22388;52.432;20.662;2022-11-25T11:23:26;114.82;;;43.55;;
36359;SDS011;22388;52.432;20.662;2022-11-25T11:30:59;117.88;;;47.28;;
36359;SDS011;22388;52.432;20.662;2022-11-25T11:38:51;122.65;;;45.20;;
36359;SDS011;22388;52.432;20.662;2022-11-25T11:46:25;121.97;;;45.38;;
36359;SDS011;22388;52.432;20.662;2022-11-25T11:48:59;113.38;;;45.08;;
36359;SDS011;22388;52.432;20.662;2022-11-25T11:54:16;116.13;;;43.38;;
36359;SDS011;22388;52.432;20.662;2022-11-25T11:56:49;111.20;;;43.40;;
36359;SDS011;22388;52.432;20.662;2022-11-25T12:02:03;114.90;;;45.88;;
36359;SDS011;22388;52.432;20.662;2022-11-25T12:07:36;106.10;;;43.03;;
36359;SDS011;22388;52.432;20.662;2022-11-25T12:12:44;106.80;;;41.83;;
36359;SDS011;22388;52.432;20.662;2022-11-25T12:15:20;108.35;;;44.30;;
36359;SDS011;22388;52.432;20.662;2022-11-25T12:18:03;102.93;;;41.45;;
36359;SDS011;22388;52.432;20.662;2022-11-25T12:20:52;102.13;;;42.47;;
36359;SDS011;22388;52.432;20.662;2022-11-25T12:23:26;104.35;;;41.50;;
36359;SDS011;22388;52.432;20.662;2022-11-25T12:26:13;100.25;;;42.97;;
36359;SDS011;22388;52.432;20.662;2022-11-25T12:28:48;104.93;;;44.50;;
36359;SDS011;22388;52.432;20.662;2022-11-25T12:36:46;130.57;;;51.67;;
36359;SDS011;22388;52.432;20.662;2022-11-25T12:39:19;129.05;;;53.20;;
36359;SDS011;22388;52.432;20.662;2022-11-25T12:41:53;124.82;;;47.53;;
36359;SDS011;22388;52.432;20.662;2022-11-25T12:46:56;108.00;;;44.88;;
36359;SDS011;22388;52.432;20.662;2022-11-25T12:49:26;99.25;;;43.40;;
36359;SDS011;22388;52.432;20.662;2022-11-25T13:16:16;102.82;;;45.28;;
36359;SDS011;22388;52.432;20.662;2022-11-25T13:18:43;119.85;;;48.90;;
36359;SDS011;22388;52.432;20.662;2022-11-25T13:21:10;117.20;;;49.95;;
36359;SDS011;22388;52.432;20.662;2022-11-25T13:23:42;112.90;;;47.33;;
36359;SDS011;22388;52.432;20.662;2022-11-25T13:26:36;116.10;;;48.15;;
36359;SDS011;22388;52.432;20.662;2022-11-25T13:32:39;117.10;;;47.03;;
36359;SDS011;22388;52.432;20.662;2022-11-25T13:34:50;117.07;;;46.45;;
36359;SDS011;22388;52.432;20.662;2022-11-25T13:37:35;111.28;;;46.40;;
36359;SDS011;22388;52.432;20.662;2022-11-25T13:42:55;127.72;;;48.92;;
36359;SDS011;22388;52.432;20.662;2022-11-25T13:50:37;120.65;;;45.90;;
36359;SDS011;22388;52.432;20.662;2022-11-25T14:01:53;135.77;;;48.38;;
36359;SDS011;22388;52.432;20.662;2022-11-25T14:04:41;120.95;;;47.00;;
36359;SDS011;22388;52.432;20.662;2022-11-25T14:15:35;126.90;;;46.35;;
36359;SDS011;22388;52.432;20.662;2022-11-25T14:26:30;126.15;;;47.55;;
36359;SDS011;22388;52.432;20.662;2022-11-25T14:29:12;133.20;;;48.63;;
36359;SDS011;22388;52.432;20.662;2022-11-25T14:31:44;141.77;;;48.85;;
36359;SDS011;22388;52.432;20.662;2022-11-25T14:34:16;131.57;;;48.07;;
36359;SDS011;22388;52.432;20.662;2022-11-25T14:36:53;120.88;;;47.97;;
36359;SDS011;22388;52.432;20.662;2022-11-25T14:39:36;128.85;;;46.95;;
36359;SDS011;22388;52.432;20.662;2022-11-25T14:42:24;132.32;;;49.70;;
36359;SDS011;22388;52.432;20.662;2022-11-25T14:44:53;125.30;;;47.72;;
36359;SDS011;22388;52.432;20.662;2022-11-25T14:47:27;130.88;;;49.63;;
36359;SDS011;22388;52.432;20.662;2022-11-25T14:49:55;130.30;;;47.80;;
36359;SDS011;22388;52.432;20.662;2022-11-25T14:52:23;123.82;;;47.30;;
36359;SDS011;22388;52.432;20.662;2022-11-25T14:54:52;136.13;;;50.40;;
36359;SDS011;22388;52.432;20.662;2022-11-25T14:57:20;123.65;;;46.92;;
36359;SDS011;22388;52.432;20.662;2022-11-25T14:59:48;131.32;;;47.55;;
36359;SDS011;22388;52.432;20.662;2022-11-25T15:02:27;129.55;;;48.30;;
36359;SDS011;22388;52.432;20.662;2022-11-25T15:05:02;118.07;;;45.08;;
36359;SDS011;22388;52.432;20.662;2022-11-25T15:07:34;129.35;;;47.83;;
36359;SDS011;22388;52.432;20.662;2022-11-25T15:09:59;132.15;;;48.78;;
36359;SDS011;22388;52.432;20.662;2022-11-25T15:12:27;117.28;;;46.38;;
36359;SDS011;22388;52.432;20.662;2022-11-25T15:14:57;113.22;;;45.13;;
36359;SDS011;22388;52.432;20.662;2022-11-25T15:19:58;114.32;;;45.53;;
36359;SDS011;22388;52.432;20.662;2022-11-25T15:22:25;112.32;;;45.17;;
36359;SDS011;22388;52.432;20.662;2022-11-25T15:24:53;114.65;;;45.08;;
36359;SDS011;22388;52.432;20.662;2022-11-25T15:27:21;105.78;;;43.33;;
36359;SDS011;22388;52.432;20.662;2022-11-25T15:29:49;102.25;;;42.63;;
36359;SDS011;22388;52.432;20.662;2022-11-25T15:32:33;113.10;;;45.38;;
36359;SDS011;22388;52.432;20.662;2022-11-25T15:35:02;100.55;;;42.05;;
36359;SDS011;22388;52.432;20.662;2022-11-25T15:37:29;109.38;;;43.95;;
36359;SDS011;22388;52.432;20.662;2022-11-25T15:42:58;107.85;;;45.13;;
36359;SDS011;22388;52.432;20.662;2022-11-25T15:45:24;107.82;;;45.20;;
36359;SDS011;22388;52.432;20.662;2022-11-25T15:47:51;112.13;;;44.15;;
36359;SDS011;22388;52.432;20.662;2022-11-25T15:50:21;114.25;;;42.80;;
36359;SDS011;22388;52.432;20.662;2022-11-25T15:52:48;109.75;;;43.28;;
36359;SDS011;22388;52.432;20.662;2022-11-25T15:57:49;109.88;;;44.22;;
36359;SDS011;22388;52.432;20.662;2022-11-25T16:00:17;115.95;;;46.65;;
36359;SDS011;22388;52.432;20.662;2022-11-25T16:10:32;103.68;;;44.40;;
36359;SDS011;22388;52.432;20.662;2022-11-25T16:15:55;113.25;;;45.60;;
36359;SDS011;22388;52.432;20.662;2022-11-25T16:21:12;118.50;;;46.75;;
36359;SDS011;22388;52.432;20.662;2022-11-25T16:23:44;113.80;;;44.95;;
36359;SDS011;22388;52.432;20.662;2022-11-25T16:26:14;109.32;;;44.40;;
36359;SDS011;22388;52.432;20.662;2022-11-25T16:28:53;105.30;;;45.53;;
36359;SDS011;22388;52.432;20.662;2022-11-25T16:31:21;119.53;;;48.13;;
36359;SDS011;22388;52.432;20.662;2022-11-25T16:33:48;110.20;;;47.22;;
36359;SDS011;22388;52.432;20.662;2022-11-25T16:36:17;125.90;;;50.25;;
36359;SDS011;22388;52.432;20.662;2022-11-25T16:38:43;121.88;;;48.13;;
36359;SDS011;22388;52.432;20.662;2022-11-25T16:41:17;126.38;;;50.72;;
36359;SDS011;22388;52.432;20.662;2022-11-25T16:43:49;119.22;;;50.08;;